Aviation Digital Data Service (ADDS)

Output produced by METARs form (0258 UTC 22 February 2019)
found at http://www.aviationweather.gov/metar/data/
 
METAR text: KOMA 220252Z 36007KT 10SM BKN070 OVC085 M03/M08 A3027 RMK AO2 SLP266 T10281078 53018
Conditions at: KOMA (OMAHA/EPPLEY , NE, US) observed 0252 UTC 22 February 2019
Temperature: -2.8°C (27°F)
Dewpoint: -7.8°C (18°F) [RH = 68%]
Pressure (altimeter): 30.27 inches Hg (1025.1 mb)
[Sea-level pressure: 1026.6 mb]
Winds: from the N (360 degrees) at 8 MPH (7 knots; 3.6 m/s)
Visibility: 10 or more miles (16+ km)
Ceiling: 7000 feet AGL
Clouds: broken clouds at 7000 feet AGL
overcast cloud deck at 8500 feet AGL
Weather: no significant weather observed at this time

METAR text: KOMA 220152Z 00000KT 10SM OVC080 M02/M09 A3025 RMK AO2 SLP260 T10171089
Conditions at: KOMA (OMAHA/EPPLEY , NE, US) observed 0152 UTC 22 February 2019
Temperature: -1.7°C (29°F)
Dewpoint: -8.9°C (16°F) [RH = 58%]
Pressure (altimeter): 30.25 inches Hg (1024.5 mb)
[Sea-level pressure: 1026.0 mb]
Winds: calm
Visibility: 10 or more miles (16+ km)
Ceiling: 8000 feet AGL
Clouds: overcast cloud deck at 8000 feet AGL
Weather: no significant weather observed at this time

METAR text: KOMA 220052Z 08003KT 10SM OVC080 M02/M09 A3023 RMK AO2 SLP252 T10171089
Conditions at: KOMA (OMAHA/EPPLEY , NE, US) observed 0052 UTC 22 February 2019
Temperature: -1.7°C (29°F)
Dewpoint: -8.9°C (16°F) [RH = 58%]
Pressure (altimeter): 30.23 inches Hg (1023.8 mb)
[Sea-level pressure: 1025.2 mb]
Winds: from the E (80 degrees) at 3 MPH (3 knots; 1.5 m/s)
Visibility: 10 or more miles (16+ km)
Ceiling: 8000 feet AGL
Clouds: overcast cloud deck at 8000 feet AGL
Weather: no significant weather observed at this time

METAR text: KOMA 212352Z 07007KT 10SM BKN100 OVC250 M02/M09 A3021 RMK AO2 SLP246 4/008 T10221089 10000 21056 50012
Conditions at: KOMA (OMAHA/EPPLEY , NE, US) observed 2352 UTC 21 February 2019
Temperature: -2.2°C (28°F)
Dewpoint: -8.9°C (16°F) [RH = 60%]
Pressure (altimeter): 30.21 inches Hg (1023.1 mb)
[Sea-level pressure: 1024.6 mb]
Winds: from the ENE (70 degrees) at 8 MPH (7 knots; 3.6 m/s)
Visibility: 10 or more miles (16+ km)
Ceiling: 10000 feet AGL
Clouds: broken clouds at 10000 feet AGL
overcast cloud deck at 25000 feet AGL
Weather: no significant weather observed at this time

METAR text: KOMA 212252Z 10006KT 10SM BKN100 OVC250 M01/M09 A3023 RMK AO2 SLP251 T10111094
Conditions at: KOMA (OMAHA/EPPLEY , NE, US) observed 2252 UTC 21 February 2019
Temperature: -1.1°C (30°F)
Dewpoint: -9.4°C (15°F) [RH = 53%]
Pressure (altimeter): 30.23 inches Hg (1023.8 mb)
[Sea-level pressure: 1025.1 mb]
Winds: from the E (100 degrees) at 7 MPH (6 knots; 3.1 m/s)
Visibility: 10 or more miles (16+ km)
Ceiling: 10000 feet AGL
Clouds: broken clouds at 10000 feet AGL
overcast cloud deck at 25000 feet AGL
Weather: no significant weather observed at this time

METAR text: KOMA 212152Z 10007KT 10SM SCT110 SCT250 M01/M09 A3020 RMK AO2 SLP242 T10111094
Conditions at: KOMA (OMAHA/EPPLEY , NE, US) observed 2152 UTC 21 February 2019
Temperature: -1.1°C (30°F)
Dewpoint: -9.4°C (15°F) [RH = 53%]
Pressure (altimeter): 30.20 inches Hg (1022.8 mb)
[Sea-level pressure: 1024.2 mb]
Winds: from the E (100 degrees) at 8 MPH (7 knots; 3.6 m/s)
Visibility: 10 or more miles (16+ km)
Ceiling: at least 12,000 feet AGL
Clouds: scattered clouds at 11000 feet AGL
scattered clouds at 25000 feet AGL
Weather: no significant weather observed at this time

METAR text: KOMA 212052Z 35007KT 10SM FEW250 M01/M08 A3017 RMK AO2 SLP233 T10111083 56017
Conditions at: KOMA (OMAHA/EPPLEY , NE, US) observed 2052 UTC 21 February 2019
Temperature: -1.1°C (30°F)
Dewpoint: -8.3°C (17°F) [RH = 58%]
Pressure (altimeter): 30.17 inches Hg (1021.8 mb)
[Sea-level pressure: 1023.3 mb]
Winds: from the N (350 degrees) at 8 MPH (7 knots; 3.6 m/s)
Visibility: 10 or more miles (16+ km)
Ceiling: at least 12,000 feet AGL
Clouds: few clouds at 25000 feet AGL
Weather: no significant weather observed at this time

METAR text: KOMA 211952Z 36010KT 9SM FEW250 M03/M09 A3018 RMK AO2 SLP235 T10281089
Conditions at: KOMA (OMAHA/EPPLEY , NE, US) observed 1952 UTC 21 February 2019
Temperature: -2.8°C (27°F)
Dewpoint: -8.9°C (16°F) [RH = 63%]
Pressure (altimeter): 30.18 inches Hg (1022.1 mb)
[Sea-level pressure: 1023.5 mb]
Winds: from the N (360 degrees) at 12 MPH (10 knots; 5.1 m/s)
Visibility: 9 miles (14 km)
Ceiling: at least 12,000 feet AGL
Clouds: few clouds at 25000 feet AGL
Weather: no significant weather observed at this time

METAR text: KOMA 211852Z 34008KT 7SM SCT250 M04/M10 A3020 RMK AO2 SLP243 T10391100
Conditions at: KOMA (OMAHA/EPPLEY , NE, US) observed 1852 UTC 21 February 2019
Temperature: -3.9°C (25°F)
Dewpoint: -10.0°C (14°F) [RH = 62%]
Pressure (altimeter): 30.20 inches Hg (1022.8 mb)
[Sea-level pressure: 1024.3 mb]
Winds: from the NNW (340 degrees) at 9 MPH (8 knots; 4.1 m/s)
Visibility: 7 miles (11 km)
Ceiling: at least 12,000 feet AGL
Clouds: scattered clouds at 25000 feet AGL
Weather: no significant weather observed at this time

METAR text: KOMA 211752Z 35008KT 6SM HZ SCT140 BKN250 M06/M11 A3023 RMK AO2 SLP251 4/008 933010 I6000 T10561106 11056 21156 50013
Conditions at: KOMA (OMAHA/EPPLEY , NE, US) observed 1752 UTC 21 February 2019
Temperature: -5.6°C (22°F)
Dewpoint: -10.6°C (13°F) [RH = 68%]
Pressure (altimeter): 30.23 inches Hg (1023.8 mb)
[Sea-level pressure: 1025.1 mb]
Winds: from the N (350 degrees) at 9 MPH (8 knots; 4.1 m/s)
Visibility: 6 miles (10 km)
Ceiling: 25000 feet AGL
Clouds: scattered clouds at 14000 feet AGL
broken clouds at 25000 feet AGL
Weather: HZ  (haze)

METAR text: KOMA 211652Z 35003KT 5SM HZ FEW140 SCT250 M07/M12 A3023 RMK AO2 SLP252 T10721117
Conditions at: KOMA (OMAHA/EPPLEY , NE, US) observed 1652 UTC 21 February 2019
Temperature: -7.2°C (19°F)
Dewpoint: -11.7°C (11°F) [RH = 70%]
Pressure (altimeter): 30.23 inches Hg (1023.8 mb)
[Sea-level pressure: 1025.2 mb]
Winds: from the N (350 degrees) at 3 MPH (3 knots; 1.5 m/s)
Visibility: 5 miles ( 8 km)
Ceiling: at least 12,000 feet AGL
Clouds: few clouds at 14000 feet AGL
scattered clouds at 25000 feet AGL
Weather: HZ  (haze)

METAR text: KOMA 211552Z 00000KT 4SM BR SCT250 M09/M11 A3021 RMK AO2 SLP247 T10891111
Conditions at: KOMA (OMAHA/EPPLEY , NE, US) observed 1552 UTC 21 February 2019
Temperature: -8.9°C (16°F)
Dewpoint: -11.1°C (12°F) [RH = 84%]
Pressure (altimeter): 30.21 inches Hg (1023.1 mb)
[Sea-level pressure: 1024.7 mb]
Winds: calm
Visibility: 4 miles ( 6 km)
Ceiling: at least 12,000 feet AGL
Clouds: scattered clouds at 25000 feet AGL
Weather: BR  (mist)

METAR text: KOMA 211452Z 36007KT 4SM R14R/3500VP6000FT BR FEW000 FEW250 M13/M16 A3019 RMK AO2 SLP239 VIS SE 1 1/2 BR FEW000 I3000 T11331161 51026
Conditions at: KOMA (OMAHA/EPPLEY , NE, US) observed 1452 UTC 21 February 2019
Temperature: -13.3°C ( 8°F)
Dewpoint: -16.1°C ( 3°F) [RH = 79%]
Pressure (altimeter): 30.19 inches Hg (1022.4 mb)
[Sea-level pressure: 1023.9 mb]
Winds: from the N (360 degrees) at 8 MPH (7 knots; 3.6 m/s)
Visibility: 4 miles ( 6 km)
Ceiling: at least 12,000 feet AGL
Clouds: few clouds at 0 feet AGL
few clouds at 25000 feet AGL
Weather: BR  (mist)

METAR text: KOMA 211432Z 36005KT M1/4SM R14R/0400FT FZFG BKN000 M15/M17 A3019 RMK AO2 FZFG BKN000 T11501172
Conditions at: KOMA (OMAHA/EPPLEY , NE, US) observed 1432 UTC 21 February 2019
Temperature: -15.0°C ( 5°F)
Dewpoint: -17.2°C ( 1°F) [RH = 83%]
Pressure (altimeter): 30.19 inches Hg (1022.4 mb)
Winds: from the N (360 degrees) at 6 MPH (5 knots; 2.6 m/s)
Visibility: 0.25 miles (0.40 km)
Ceiling: 0 feet AGL
Clouds: broken clouds at 0 feet AGL
Weather: FZFG  (freezing fog)

METAR text: KOMA 211420Z 35005KT M1/4SM R14R/0300V0800FT FZFG SCT000 M14/M17 A3018 RMK AO2 VIS SW-W 4 FZFG SCT000 T11441167
Conditions at: KOMA (OMAHA/EPPLEY , NE, US) observed 1420 UTC 21 February 2019
Temperature: -14.4°C ( 6°F)
Dewpoint: -16.7°C ( 2°F) [RH = 83%]
Pressure (altimeter): 30.18 inches Hg (1022.1 mb)
Winds: from the N (350 degrees) at 6 MPH (5 knots; 2.6 m/s)
Visibility: 0.25 miles (0.40 km)
Ceiling: at least 12,000 feet AGL
Clouds: scattered clouds at 0 feet AGL
Weather: FZFG  (freezing fog)

METAR text: KOMA 211416Z VRB03KT M1/4SM R14R/0300V0800FT FZFG VV002 M14/M16 A3018 RMK AO2 VIS SW-W 4 T11391161
Conditions at: KOMA (OMAHA/EPPLEY , NE, US) observed 1416 UTC 21 February 2019
Temperature: -13.9°C ( 7°F)
Dewpoint: -16.1°C ( 3°F) [RH = 83%]
Pressure (altimeter): 30.18 inches Hg (1022.1 mb)
Winds: variable direction winds at 3 MPH (3 knots; 1.5 m/s)
Visibility: 0.25 miles (0.40 km)
Ceiling: indefinite ceiling with vertical visibility of 200 feet AGL
Clouds: obscured sky
Weather: FZFG  (freezing fog)

METAR text: KOMA 211352Z 00000KT 2 1/2SM R14R/0600V3000FT BR FEW250 M15/M17 A3017 RMK AO2 SLP235 VIS N 1/8 T11501167
Conditions at: KOMA (OMAHA/EPPLEY , NE, US) observed 1352 UTC 21 February 2019
Temperature: -15.0°C ( 5°F)
Dewpoint: -16.7°C ( 2°F) [RH = 87%]
Pressure (altimeter): 30.17 inches Hg (1021.8 mb)
[Sea-level pressure: 1023.5 mb]
Winds: calm
Visibility: 2.50 miles (4.02 km)
Ceiling: at least 12,000 feet AGL
Clouds: few clouds at 25000 feet AGL
Weather: BR  (mist)

METAR text: KOMA 211252Z 16003KT 7SM BCFG FEW250 M13/M16 A3013 RMK AO2 SLP220 FG ALONG RIVER I1000 T11331156
Conditions at: KOMA (OMAHA/EPPLEY , NE, US) observed 1252 UTC 21 February 2019
Temperature: -13.3°C ( 8°F)
Dewpoint: -15.6°C ( 4°F) [RH = 83%]
Pressure (altimeter): 30.13 inches Hg (1020.4 mb)
[Sea-level pressure: 1022.0 mb]
Winds: from the SSE (160 degrees) at 3 MPH (3 knots; 1.5 m/s)
Visibility: 7 miles (11 km)
Ceiling: at least 12,000 feet AGL
Clouds: few clouds at 25000 feet AGL
Weather: BCFG  (patches of fog)

METAR text: KOMA 211152Z 13005KT 8SM CLR M13/M15 A3011 RMK AO2 SLP211 4/009 70002 I1000 I6001 T11281150 11067 21133 53019
Conditions at: KOMA (OMAHA/EPPLEY , NE, US) observed 1152 UTC 21 February 2019
Temperature: -12.8°C ( 9°F)
Dewpoint: -15.0°C ( 5°F) [RH = 84%]
Pressure (altimeter): 30.11 inches Hg (1019.7 mb)
[Sea-level pressure: 1021.1 mb]
Winds: from the SE (130 degrees) at 6 MPH (5 knots; 2.6 m/s)
Visibility: 8 miles (13 km)
Ceiling: at least 12,000 feet AGL
Clouds: sky clear below 12,000 feet AGL
Weather: no significant weather observed at this time

METAR text: KOMA 211052Z 20003KT 8SM CLR M11/M13 A3009 RMK AO2 SLP202 T11111133
Conditions at: KOMA (OMAHA/EPPLEY , NE, US) observed 1052 UTC 21 February 2019
Temperature: -11.1°C (12°F)
Dewpoint: -13.3°C ( 8°F) [RH = 84%]
Pressure (altimeter): 30.09 inches Hg (1019.0 mb)
[Sea-level pressure: 1020.2 mb]
Winds: from the SSW (200 degrees) at 3 MPH (3 knots; 1.5 m/s)
Visibility: 8 miles (13 km)
Ceiling: at least 12,000 feet AGL
Clouds: sky clear below 12,000 feet AGL
Weather: no significant weather observed at this time

METAR text: KOMA 210952Z 15005KT 7SM CLR M12/M14 A3007 RMK AO2 SLP199 I1001 T11221144
Conditions at: KOMA (OMAHA/EPPLEY , NE, US) observed 0952 UTC 21 February 2019
Temperature: -12.2°C (10°F)
Dewpoint: -14.4°C ( 6°F) [RH = 84%]
Pressure (altimeter): 30.07 inches Hg (1018.4 mb)
[Sea-level pressure: 1019.9 mb]
Winds: from the SSE (150 degrees) at 6 MPH (5 knots; 2.6 m/s)
Visibility: 7 miles (11 km)
Ceiling: at least 12,000 feet AGL
Clouds: sky clear below 12,000 feet AGL
Weather: no significant weather observed at this time

METAR text: KOMA 210852Z 00000KT 8SM CLR M13/M14 A3005 RMK AO2 SLP191 I1000 I3000 T11331144 51026
Conditions at: KOMA (OMAHA/EPPLEY , NE, US) observed 0852 UTC 21 February 2019
Temperature: -13.3°C ( 8°F)
Dewpoint: -14.4°C ( 6°F) [RH = 91%]
Pressure (altimeter): 30.05 inches Hg (1017.7 mb)
[Sea-level pressure: 1019.1 mb]
Winds: calm
Visibility: 8 miles (13 km)
Ceiling: at least 12,000 feet AGL
Clouds: sky clear below 12,000 feet AGL
Weather: no significant weather observed at this time

METAR text: KOMA 210752Z 14003KT 8SM CLR M11/M13 A3004 RMK AO2 SLP187 T11061128
Conditions at: KOMA (OMAHA/EPPLEY , NE, US) observed 0752 UTC 21 February 2019
Temperature: -10.6°C (13°F)
Dewpoint: -12.8°C ( 9°F) [RH = 84%]
Pressure (altimeter): 30.04 inches Hg (1017.4 mb)
[Sea-level pressure: 1018.7 mb]
Winds: from the SE (140 degrees) at 3 MPH (3 knots; 1.5 m/s)
Visibility: 8 miles (13 km)
Ceiling: at least 12,000 feet AGL
Clouds: sky clear below 12,000 feet AGL
Weather: no significant weather observed at this time

METAR text: KOMA 210652Z 15003KT 8SM CLR M09/M13 A3000 RMK AO2 SLP174 T10941128
Conditions at: KOMA (OMAHA/EPPLEY , NE, US) observed 0652 UTC 21 February 2019
Temperature: -9.4°C (15°F)
Dewpoint: -12.8°C ( 9°F) [RH = 76%]
Pressure (altimeter): 30.00 inches Hg (1016.0 mb)
[Sea-level pressure: 1017.4 mb]
Winds: from the SSE (150 degrees) at 3 MPH (3 knots; 1.5 m/s)
Visibility: 8 miles (13 km)
Ceiling: at least 12,000 feet AGL
Clouds: sky clear below 12,000 feet AGL
Weather: no significant weather observed at this time

METAR text: KOMA 210552Z 26004KT 9SM CLR M08/M12 A2997 RMK AO2 SLP162 4/009 T10781117 11017 21078 410111078 51027
Conditions at: KOMA (OMAHA/EPPLEY , NE, US) observed 0552 UTC 21 February 2019
Temperature: -7.8°C (18°F)
Dewpoint: -11.7°C (11°F) [RH = 74%]
Pressure (altimeter): 29.97 inches Hg (1015.0 mb)
[Sea-level pressure: 1016.2 mb]
Winds: from the W (260 degrees) at 5 MPH (4 knots; 2.1 m/s)
Visibility: 9 miles (14 km)
Ceiling: at least 12,000 feet AGL
Clouds: sky clear below 12,000 feet AGL
Weather: no significant weather observed at this time

METAR text: KOMA 210452Z 27006KT 10SM CLR M06/M11 A2995 RMK AO2 SLP155 T10561106
Conditions at: KOMA (OMAHA/EPPLEY , NE, US) observed 0452 UTC 21 February 2019
Temperature: -5.6°C (22°F)
Dewpoint: -10.6°C (13°F) [RH = 68%]
Pressure (altimeter): 29.95 inches Hg (1014.3 mb)
[Sea-level pressure: 1015.5 mb]
Winds: from the W (270 degrees) at 7 MPH (6 knots; 3.1 m/s)
Visibility: 10 or more miles (16+ km)
Ceiling: at least 12,000 feet AGL
Clouds: sky clear below 12,000 feet AGL
Weather: no significant weather observed at this time

METAR text: KOMA 210352Z 28007KT 10SM CLR M04/M10 A2993 RMK AO2 PRESRR SLP147 T10441100
Conditions at: KOMA (OMAHA/EPPLEY , NE, US) observed 0352 UTC 21 February 2019
Temperature: -4.4°C (24°F)
Dewpoint: -10.0°C (14°F) [RH = 65%]
Pressure (altimeter): 29.93 inches Hg (1013.6 mb)
[Sea-level pressure: 1014.7 mb]
Winds: from the W (280 degrees) at 8 MPH (7 knots; 3.6 m/s)
Visibility: 10 or more miles (16+ km)
Ceiling: at least 12,000 feet AGL
Clouds: sky clear below 12,000 feet AGL
Weather: no significant weather observed at this time

METAR text: KOMA 210252Z 25005KT 10SM CLR M04/M09 A2989 RMK AO2 SLP133 T10391094 51033
Conditions at: KOMA (OMAHA/EPPLEY , NE, US) observed 0252 UTC 21 February 2019
Temperature: -3.9°C (25°F)
Dewpoint: -9.4°C (15°F) [RH = 66%]
Pressure (altimeter): 29.89 inches Hg (1012.3 mb)
[Sea-level pressure: 1013.3 mb]
Winds: from the WSW (250 degrees) at 6 MPH (5 knots; 2.6 m/s)
Visibility: 10 or more miles (16+ km)
Ceiling: at least 12,000 feet AGL
Clouds: sky clear below 12,000 feet AGL
Weather: no significant weather observed at this time

METAR text: KOMA 210152Z 26007KT 10SM CLR M03/M08 A2986 RMK AO2 SLP123 T10331083
Conditions at: KOMA (OMAHA/EPPLEY , NE, US) observed 0152 UTC 21 February 2019
Temperature: -3.3°C (26°F)
Dewpoint: -8.3°C (17°F) [RH = 68%]
Pressure (altimeter): 29.86 inches Hg (1011.3 mb)
[Sea-level pressure: 1012.3 mb]
Winds: from the W (260 degrees) at 8 MPH (7 knots; 3.6 m/s)
Visibility: 10 or more miles (16+ km)
Ceiling: at least 12,000 feet AGL
Clouds: sky clear below 12,000 feet AGL
Weather: no significant weather observed at this time

METAR text: KOMA 210052Z VRB06KT 10SM CLR M02/M08 A2982 RMK AO2 SLP110 T10221078
Conditions at: KOMA (OMAHA/EPPLEY , NE, US) observed 0052 UTC 21 February 2019
Temperature: -2.2°C (28°F)
Dewpoint: -7.8°C (18°F) [RH = 65%]
Pressure (altimeter): 29.82 inches Hg (1009.9 mb)
[Sea-level pressure: 1011.0 mb]
Winds: variable direction winds at 7 MPH (6 knots; 3.1 m/s)
Visibility: 10 or more miles (16+ km)
Ceiling: at least 12,000 feet AGL
Clouds: sky clear below 12,000 feet AGL
Weather: no significant weather observed at this time

METAR text: KOMA 202352Z 22010KT 10SM CLR M02/M08 A2979 RMK AO2 SLP098 4/009 T10171078 11011 21022 53030
Conditions at: KOMA (OMAHA/EPPLEY , NE, US) observed 2352 UTC 20 February 2019
Temperature: -1.7°C (29°F)
Dewpoint: -7.8°C (18°F) [RH = 63%]
Pressure (altimeter): 29.79 inches Hg (1008.9 mb)
[Sea-level pressure: 1009.8 mb]
Winds: from the SW (220 degrees) at 12 MPH (10 knots; 5.1 m/s)
Visibility: 10 or more miles (16+ km)
Ceiling: at least 12,000 feet AGL
Clouds: sky clear below 12,000 feet AGL
Weather: no significant weather observed at this time

METAR text: KOMA 202252Z 23009KT 9SM CLR M01/M08 A2976 RMK AO2 SLP087 T10111083
Conditions at: KOMA (OMAHA/EPPLEY , NE, US) observed 2252 UTC 20 February 2019
Temperature: -1.1°C (30°F)
Dewpoint: -8.3°C (17°F) [RH = 58%]
Pressure (altimeter): 29.76 inches Hg (1007.9 mb)
[Sea-level pressure: 1008.7 mb]
Winds: from the SW (230 degrees) at 10 MPH (9 knots; 4.6 m/s)
Visibility: 9 miles (14 km)
Ceiling: at least 12,000 feet AGL
Clouds: sky clear below 12,000 feet AGL
Weather: no significant weather observed at this time

METAR text: KOMA 202152Z 23012G19KT 10SM FEW035 M01/M09 A2973 RMK AO2 SLP077 T10111089
Conditions at: KOMA (OMAHA/EPPLEY , NE, US) observed 2152 UTC 20 February 2019
Temperature: -1.1°C (30°F)
Dewpoint: -8.9°C (16°F) [RH = 55%]
Pressure (altimeter): 29.73 inches Hg (1006.9 mb)
[Sea-level pressure: 1007.7 mb]
Winds: from the SW (230 degrees) at 14 MPH (12 knots; 6.2 m/s)
gusting to 22 MPH (19 knots; 9.8 m/s)
Visibility: 10 or more miles (16+ km)
Ceiling: at least 12,000 feet AGL
Clouds: few clouds at 3500 feet AGL
Weather: no significant weather observed at this time

METAR text: KOMA 202052Z 24012KT 10SM FEW032 M01/M08 A2970 RMK AO2 SLP067 T10111083 55000
Conditions at: KOMA (OMAHA/EPPLEY , NE, US) observed 2052 UTC 20 February 2019
Temperature: -1.1°C (30°F)
Dewpoint: -8.3°C (17°F) [RH = 58%]
Pressure (altimeter): 29.70 inches Hg (1005.8 mb)
[Sea-level pressure: 1006.7 mb]
Winds: from the WSW (240 degrees) at 14 MPH (12 knots; 6.2 m/s)
Visibility: 10 or more miles (16+ km)
Ceiling: at least 12,000 feet AGL
Clouds: few clouds at 3200 feet AGL
Weather: no significant weather observed at this time

METAR text: KOMA 201952Z 25011KT 10SM SCT022 M01/M08 A2969 RMK AO2 SLP066 T10111083
Conditions at: KOMA (OMAHA/EPPLEY , NE, US) observed 1952 UTC 20 February 2019
Temperature: -1.1°C (30°F)
Dewpoint: -8.3°C (17°F) [RH = 58%]
Pressure (altimeter): 29.69 inches Hg (1005.5 mb)
[Sea-level pressure: 1006.6 mb]
Winds: from the WSW (250 degrees) at 13 MPH (11 knots; 5.7 m/s)
Visibility: 10 or more miles (16+ km)
Ceiling: at least 12,000 feet AGL
Clouds: scattered clouds at 2200 feet AGL
Weather: no significant weather observed at this time

METAR text: KOMA 201921Z 26013G19KT 10SM SCT022 M02/M08 A2969 RMK AO2 T10171078
Conditions at: KOMA (OMAHA/EPPLEY , NE, US) observed 1921 UTC 20 February 2019
Temperature: -1.7°C (29°F)
Dewpoint: -7.8°C (18°F) [RH = 63%]
Pressure (altimeter): 29.69 inches Hg (1005.5 mb)
Winds: from the W (260 degrees) at 15 MPH (13 knots; 6.7 m/s)
gusting to 22 MPH (19 knots; 9.8 m/s)
Visibility: 10 or more miles (16+ km)
Ceiling: at least 12,000 feet AGL
Clouds: scattered clouds at 2200 feet AGL
Weather: no significant weather observed at this time

METAR text: KOMA 201852Z 25008G20KT 10SM BKN020 BKN026 BKN090 OVC250 M02/M07 A2970 RMK AO2 SLP067 T10171072
Conditions at: KOMA (OMAHA/EPPLEY , NE, US) observed 1852 UTC 20 February 2019
Temperature: -1.7°C (29°F)
Dewpoint: -7.2°C (19°F) [RH = 66%]
Pressure (altimeter): 29.70 inches Hg (1005.8 mb)
[Sea-level pressure: 1006.7 mb]
Winds: from the WSW (250 degrees) at 9 MPH (8 knots; 4.1 m/s)
gusting to 23 MPH (20 knots; 10.3 m/s)
Visibility: 10 or more miles (16+ km)
Ceiling: 2000 feet AGL
Clouds: broken clouds at 2000 feet AGL
broken clouds at 2600 feet AGL
broken clouds at 9000 feet AGL
overcast cloud deck at 25000 feet AGL
Weather: no significant weather observed at this time

METAR text: KOMA 201752Z 26010KT 9SM BKN019 BKN090 OVC250 M02/M07 A2970 RMK AO2 SNE36 SLP068 4/009 933010 P0000 60002 T10171067 11017 21039 55002
Conditions at: KOMA (OMAHA/EPPLEY , NE, US) observed 1752 UTC 20 February 2019
Temperature: -1.7°C (29°F)
Dewpoint: -6.7°C (20°F) [RH = 69%]
Pressure (altimeter): 29.70 inches Hg (1005.8 mb)
[Sea-level pressure: 1006.8 mb]
Winds: from the W (260 degrees) at 12 MPH (10 knots; 5.1 m/s)
Visibility: 9 miles (14 km)
Ceiling: 1900 feet AGL
Clouds: broken clouds at 1900 feet AGL
broken clouds at 9000 feet AGL
overcast cloud deck at 25000 feet AGL
Weather: no significant weather observed at this time

METAR text: KOMA 201659Z 25012KT 4SM -SN BKN016 OVC022 M02/M06 A2969 RMK AO2 P0000 T10171056
Conditions at: KOMA (OMAHA/EPPLEY , NE, US) observed 1659 UTC 20 February 2019
Temperature: -1.7°C (29°F)
Dewpoint: -5.6°C (22°F) [RH = 75%]
Pressure (altimeter): 29.69 inches Hg (1005.5 mb)
Winds: from the WSW (250 degrees) at 14 MPH (12 knots; 6.2 m/s)
Visibility: 4 miles ( 6 km)
Ceiling: 1600 feet AGL
Clouds: broken clouds at 1600 feet AGL
overcast cloud deck at 2200 feet AGL
Weather: -SN  (light snow)

METAR text: KOMA 201652Z 24012KT 2 1/2SM -SN BKN015 OVC022 M02/M05 A2969 RMK AO2 SNB18 SLP064 P0000 T10171050
Conditions at: KOMA (OMAHA/EPPLEY , NE, US) observed 1652 UTC 20 February 2019
Temperature: -1.7°C (29°F)
Dewpoint: -5.0°C (23°F) [RH = 78%]
Pressure (altimeter): 29.69 inches Hg (1005.5 mb)
[Sea-level pressure: 1006.4 mb]
Winds: from the WSW (240 degrees) at 14 MPH (12 knots; 6.2 m/s)
Visibility: 2.50 miles (4.02 km)
Ceiling: 1500 feet AGL
Clouds: broken clouds at 1500 feet AGL
overcast cloud deck at 2200 feet AGL
Weather: -SN  (light snow)

METAR text: KOMA 201641Z 25012KT 3SM -SN OVC015 M02/M05 A2969 RMK AO2 SNB18 P0000 T10171050
Conditions at: KOMA (OMAHA/EPPLEY , NE, US) observed 1641 UTC 20 February 2019
Temperature: -1.7°C (29°F)
Dewpoint: -5.0°C (23°F) [RH = 78%]
Pressure (altimeter): 29.69 inches Hg (1005.5 mb)
Winds: from the WSW (250 degrees) at 14 MPH (12 knots; 6.2 m/s)
Visibility: 3 miles ( 5 km)
Ceiling: 1500 feet AGL
Clouds: overcast cloud deck at 1500 feet AGL
Weather: -SN  (light snow)

METAR text: KOMA 201552Z 21008KT 7SM BKN010 OVC018 M02/M04 A2969 RMK AO2 SNE20 SLP067 P0000 T10221044
Conditions at: KOMA (OMAHA/EPPLEY , NE, US) observed 1552 UTC 20 February 2019
Temperature: -2.2°C (28°F)
Dewpoint: -4.4°C (24°F) [RH = 85%]
Pressure (altimeter): 29.69 inches Hg (1005.5 mb)
[Sea-level pressure: 1006.7 mb]
Winds: from the SSW (210 degrees) at 9 MPH (8 knots; 4.1 m/s)
Visibility: 7 miles (11 km)
Ceiling: 1000 feet AGL
Clouds: broken clouds at 1000 feet AGL
overcast cloud deck at 1800 feet AGL
Weather: no significant weather observed at this time

METAR text: KOMA 201505Z 17006KT 3SM R14R/4000VP6000FT -SN BR BKN012 BKN033 OVC070 M03/M05 A2971 RMK AO2 P0000 T10281050
Conditions at: KOMA (OMAHA/EPPLEY , NE, US) observed 1505 UTC 20 February 2019
Temperature: -2.8°C (27°F)
Dewpoint: -5.0°C (23°F) [RH = 85%]
Pressure (altimeter): 29.71 inches Hg (1006.2 mb)
Winds: from the S (170 degrees) at 7 MPH (6 knots; 3.1 m/s)
Visibility: 3 miles ( 5 km)
Ceiling: 1200 feet AGL
Clouds: broken clouds at 1200 feet AGL
broken clouds at 3300 feet AGL
overcast cloud deck at 7000 feet AGL
Weather: -SN BR  (light snow, mist)

Forecast for: KOMA (OMAHA/EPPLEY , NE, US)
Text: KOMA 212323Z 2200/2224 VRB04KT P6SM BKN100
Forecast period: 0000 to 1400 UTC 22 February 2019
Forecast type: FROM: standard forecast or significant change
Winds: variable direction winds at 5 MPH (4 knots; 2.1 m/s)
Visibility: 6 or more miles 10+ km)
Ceiling: 10000 feet AGL
Clouds: broken clouds at 10000 feet AGL
Weather: no significant weather forecast for this period
Text: FM221400 12008KT P6SM BKN070
Forecast period: 1400 to 2000 UTC 22 February 2019
Forecast type: FROM: standard forecast or significant change
Winds: from the ESE (120 degrees) at 9 MPH (8 knots; 4.1 m/s)
Visibility: 6 or more miles 10+ km)
Ceiling: 7000 feet AGL
Clouds: broken clouds at 7000 feet AGL
Weather: no significant weather forecast for this period
Text: FM222000 13010KT P6SM BKN040
Forecast period: 2000 to 2200 UTC 22 February 2019
Forecast type: FROM: standard forecast or significant change
Winds: from the SE (130 degrees) at 12 MPH (10 knots; 5.1 m/s)
Visibility: 6 or more miles 10+ km)
Ceiling: 4000 feet AGL
Clouds: broken clouds at 4000 feet AGL
Weather: no significant weather forecast for this period
Text: PROB30 2220/2222 4SM -FZDZ OVC025
Forecast period: 2000 to 2200 UTC 22 February 2019
Forecast type: PROBABLE: 30 percent likelihood of the following during this time
Visibility: 4 miles (6 km)
Ceiling: 2500 feet AGL
Clouds: overcast cloud deck at 2500 feet AGL
Weather: -FZDZ  (light freezing drizzle)
Text: FM222200 13009KT P6SM OVC009
Forecast period: 2200 UTC 22 February 2019 to 0000 UTC 23 February 2019
Forecast type: FROM: standard forecast or significant change
Winds: from the SE (130 degrees) at 10 MPH (9 knots; 4.6 m/s)
Visibility: 6 or more miles 10+ km)
Ceiling: 900 feet AGL
Clouds: overcast cloud deck at 900 feet AGL
Weather: no significant weather forecast for this period
Text: PROB30 2222/2224 4SM -FZDZ OVC006
Forecast period: 2200 UTC 22 February 2019 to 0000 UTC 23 February 2019
Forecast type: PROBABLE: 30 percent likelihood of the following during this time
Visibility: 4 miles (6 km)
Ceiling: 600 feet AGL
Clouds: overcast cloud deck at 600 feet AGL
Weather: -FZDZ  (light freezing drizzle)